sensor_id;sensor_type;location;lat;lon;timestamp;P1;durP1;ratioP1;P2;durP2;ratioP2
68247;SDS011;55064;49.636;12.164;2023-05-10T00:01:36;8.63;;;2.85;;
68247;SDS011;55064;49.636;12.164;2023-05-10T00:26:01;8.77;;;2.90;;
68247;SDS011;55064;49.636;12.164;2023-05-10T00:31:29;6.00;;;2.97;;
68247;SDS011;55064;49.636;12.164;2023-05-10T00:36:40;7.13;;;3.10;;
68247;SDS011;55064;49.636;12.164;2023-05-10T00:39:22;8.17;;;3.20;;
68247;SDS011;55064;49.636;12.164;2023-05-10T01:07:03;8.30;;;3.45;;
68247;SDS011;55064;49.636;12.164;2023-05-10T01:09:31;7.63;;;2.90;;
68247;SDS011;55064;49.636;12.164;2023-05-10T01:17:55;7.68;;;2.95;;
68247;SDS011;55064;49.636;12.164;2023-05-10T01:20:35;6.90;;;3.20;;
68247;SDS011;55064;49.636;12.164;2023-05-10T01:39:14;8.48;;;3.33;;
68247;SDS011;55064;49.636;12.164;2023-05-10T01:42:03;6.97;;;2.90;;
68247;SDS011;55064;49.636;12.164;2023-05-10T01:51:24;8.55;;;3.03;;
68247;SDS011;55064;49.636;12.164;2023-05-10T01:57:14;8.07;;;3.20;;
68247;SDS011;55064;49.636;12.164;2023-05-10T02:11:25;7.47;;;3.30;;
68247;SDS011;55064;49.636;12.164;2023-05-10T02:13:55;7.72;;;3.45;;
68247;SDS011;55064;49.636;12.164;2023-05-10T02:26:54;6.43;;;3.10;;
68247;SDS011;55064;49.636;12.164;2023-05-10T02:29:27;6.80;;;3.10;;
68247;SDS011;55064;49.636;12.164;2023-05-10T02:38:40;9.77;;;3.53;;
68247;SDS011;55064;49.636;12.164;2023-05-10T02:53:30;10.05;;;3.33;;
68247;SDS011;55064;49.636;12.164;2023-05-10T02:59:23;7.47;;;3.50;;
68247;SDS011;55064;49.636;12.164;2023-05-10T03:05:10;7.70;;;3.47;;
68247;SDS011;55064;49.636;12.164;2023-05-10T03:36:01;6.68;;;3.30;;
68247;SDS011;55064;49.636;12.164;2023-05-10T04:01:33;9.45;;;3.90;;
68247;SDS011;55064;49.636;12.164;2023-05-10T04:24:11;7.07;;;3.22;;
68247;SDS011;55064;49.636;12.164;2023-05-10T04:26:38;9.37;;;3.90;;
68247;SDS011;55064;49.636;12.164;2023-05-10T04:45:12;8.38;;;4.13;;
68247;SDS011;55064;49.636;12.164;2023-05-10T04:50:26;11.48;;;4.13;;
68247;SDS011;55064;49.636;12.164;2023-05-10T04:53:05;9.18;;;4.00;;
68247;SDS011;55064;49.636;12.164;2023-05-10T05:02:08;8.65;;;4.35;;
68247;SDS011;55064;49.636;12.164;2023-05-10T05:04:42;10.23;;;5.03;;
68247;SDS011;55064;49.636;12.164;2023-05-10T05:10:19;8.88;;;3.97;;
68247;SDS011;55064;49.636;12.164;2023-05-10T05:12:57;8.52;;;3.95;;
68247;SDS011;55064;49.636;12.164;2023-05-10T05:18:44;9.02;;;4.63;;
68247;SDS011;55064;49.636;12.164;2023-05-10T05:27:16;10.27;;;4.55;;
68247;SDS011;55064;49.636;12.164;2023-05-10T05:29:47;11.65;;;4.82;;
68247;SDS011;55064;49.636;12.164;2023-05-10T05:32:12;10.18;;;4.80;;
68247;SDS011;55064;49.636;12.164;2023-05-10T05:37:51;10.55;;;5.00;;
68247;SDS011;55064;49.636;12.164;2023-05-10T05:40:17;12.97;;;4.70;;
68247;SDS011;55064;49.636;12.164;2023-05-10T05:42:42;10.00;;;5.47;;
68247;SDS011;55064;49.636;12.164;2023-05-10T05:45:10;10.00;;;4.95;;
68247;SDS011;55064;49.636;12.164;2023-05-10T05:47:38;10.90;;;5.22;;
68247;SDS011;55064;49.636;12.164;2023-05-10T05:50:06;12.23;;;5.37;;
68247;SDS011;55064;49.636;12.164;2023-05-10T05:52:32;13.10;;;6.00;;
68247;SDS011;55064;49.636;12.164;2023-05-10T05:54:57;11.00;;;5.37;;
68247;SDS011;55064;49.636;12.164;2023-05-10T05:57:23;11.17;;;5.47;;
68247;SDS011;55064;49.636;12.164;2023-05-10T05:59:49;12.57;;;5.55;;
68247;SDS011;55064;49.636;12.164;2023-05-10T06:02:14;11.27;;;5.17;;
68247;SDS011;55064;49.636;12.164;2023-05-10T06:04:39;11.83;;;5.23;;
68247;SDS011;55064;49.636;12.164;2023-05-10T06:07:05;11.95;;;5.30;;
68247;SDS011;55064;49.636;12.164;2023-05-10T06:09:30;11.10;;;5.90;;
68247;SDS011;55064;49.636;12.164;2023-05-10T06:11:56;9.63;;;5.50;;
68247;SDS011;55064;49.636;12.164;2023-05-10T06:14:23;9.98;;;5.20;;
68247;SDS011;55064;49.636;12.164;2023-05-10T06:16:51;11.15;;;5.57;;
68247;SDS011;55064;49.636;12.164;2023-05-10T06:19:16;11.83;;;5.53;;
68247;SDS011;55064;49.636;12.164;2023-05-10T06:21:42;11.20;;;5.70;;
68247;SDS011;55064;49.636;12.164;2023-05-10T06:24:08;11.77;;;5.37;;
68247;SDS011;55064;49.636;12.164;2023-05-10T06:26:33;11.10;;;5.60;;
68247;SDS011;55064;49.636;12.164;2023-05-10T06:28:59;10.30;;;5.53;;
68247;SDS011;55064;49.636;12.164;2023-05-10T06:31:27;11.70;;;5.40;;
68247;SDS011;55064;49.636;12.164;2023-05-10T06:33:52;14.48;;;5.80;;
68247;SDS011;55064;49.636;12.164;2023-05-10T06:36:18;15.40;;;7.90;;
68247;SDS011;55064;49.636;12.164;2023-05-10T06:38:43;13.70;;;7.50;;
68247;SDS011;55064;49.636;12.164;2023-05-10T06:41:11;13.17;;;6.70;;
68247;SDS011;55064;49.636;12.164;2023-05-10T06:43:36;14.50;;;7.00;;
68247;SDS011;55064;49.636;12.164;2023-05-10T06:46:05;18.20;;;9.97;;
68247;SDS011;55064;49.636;12.164;2023-05-10T06:48:30;12.27;;;6.88;;
68247;SDS011;55064;49.636;12.164;2023-05-10T06:50:58;11.82;;;6.28;;
68247;SDS011;55064;49.636;12.164;2023-05-10T06:53:26;12.13;;;6.20;;
68247;SDS011;55064;49.636;12.164;2023-05-10T06:55:52;11.07;;;6.05;;
68247;SDS011;55064;49.636;12.164;2023-05-10T06:58:25;12.07;;;5.67;;
68247;SDS011;55064;49.636;12.164;2023-05-10T07:00:50;11.43;;;5.80;;
68247;SDS011;55064;49.636;12.164;2023-05-10T07:03:18;11.98;;;6.60;;
68247;SDS011;55064;49.636;12.164;2023-05-10T07:05:44;14.53;;;6.00;;
68247;SDS011;55064;49.636;12.164;2023-05-10T07:08:09;12.07;;;6.60;;
68247;SDS011;55064;49.636;12.164;2023-05-10T07:10:34;12.07;;;6.37;;
68247;SDS011;55064;49.636;12.164;2023-05-10T07:13:00;13.32;;;6.35;;
68247;SDS011;55064;49.636;12.164;2023-05-10T07:15:28;12.57;;;7.30;;
68247;SDS011;55064;49.636;12.164;2023-05-10T07:17:53;12.97;;;7.33;;
68247;SDS011;55064;49.636;12.164;2023-05-10T07:20:19;13.27;;;7.20;;
68247;SDS011;55064;49.636;12.164;2023-05-10T07:22:46;12.52;;;6.40;;
68247;SDS011;55064;49.636;12.164;2023-05-10T07:25:14;14.10;;;7.25;;
68247;SDS011;55064;49.636;12.164;2023-05-10T07:27:42;13.75;;;6.85;;
68247;SDS011;55064;49.636;12.164;2023-05-10T07:30:07;13.00;;;6.77;;
68247;SDS011;55064;49.636;12.164;2023-05-10T07:32:33;14.68;;;6.90;;
68247;SDS011;55064;49.636;12.164;2023-05-10T07:34:58;12.83;;;6.53;;
68247;SDS011;55064;49.636;12.164;2023-05-10T07:37:24;13.53;;;6.50;;
68247;SDS011;55064;49.636;12.164;2023-05-10T07:39:49;12.27;;;6.60;;
68247;SDS011;55064;49.636;12.164;2023-05-10T07:42:15;12.07;;;7.17;;
68247;SDS011;55064;49.636;12.164;2023-05-10T07:44:40;12.88;;;6.18;;
68247;SDS011;55064;49.636;12.164;2023-05-10T07:47:05;12.60;;;7.10;;
68247;SDS011;55064;49.636;12.164;2023-05-10T07:49:31;12.60;;;7.00;;
68247;SDS011;55064;49.636;12.164;2023-05-10T07:51:56;12.03;;;6.40;;
68247;SDS011;55064;49.636;12.164;2023-05-10T07:54:21;12.87;;;6.40;;
68247;SDS011;55064;49.636;12.164;2023-05-10T07:56:49;13.80;;;6.70;;
68247;SDS011;55064;49.636;12.164;2023-05-10T07:59:19;13.25;;;6.57;;
68247;SDS011;55064;49.636;12.164;2023-05-10T08:01:45;12.00;;;6.43;;
68247;SDS011;55064;49.636;12.164;2023-05-10T08:04:12;12.60;;;6.03;;
68247;SDS011;55064;49.636;12.164;2023-05-10T08:06:38;10.85;;;6.13;;
68247;SDS011;55064;49.636;12.164;2023-05-10T08:09:06;10.80;;;6.20;;
68247;SDS011;55064;49.636;12.164;2023-05-10T08:11:34;10.57;;;5.57;;
68247;SDS011;55064;49.636;12.164;2023-05-10T08:14:00;11.25;;;6.35;;
68247;SDS011;55064;49.636;12.164;2023-05-10T08:16:25;12.57;;;6.40;;
68247;SDS011;55064;49.636;12.164;2023-05-10T08:18:51;13.77;;;6.85;;
68247;SDS011;55064;49.636;12.164;2023-05-10T08:21:17;10.80;;;5.97;;
68247;SDS011;55064;49.636;12.164;2023-05-10T08:23:45;10.55;;;5.70;;
68247;SDS011;55064;49.636;12.164;2023-05-10T08:26:11;10.40;;;5.63;;
68247;SDS011;55064;49.636;12.164;2023-05-10T08:28:36;11.10;;;6.30;;
68247;SDS011;55064;49.636;12.164;2023-05-10T08:31:01;11.10;;;5.93;;
68247;SDS011;55064;49.636;12.164;2023-05-10T08:33:27;12.03;;;6.30;;
68247;SDS011;55064;49.636;12.164;2023-05-10T08:35:52;13.23;;;6.83;;
68247;SDS011;55064;49.636;12.164;2023-05-10T08:38:17;12.27;;;6.53;;
68247;SDS011;55064;49.636;12.164;2023-05-10T08:40:43;12.13;;;5.90;;
68247;SDS011;55064;49.636;12.164;2023-05-10T08:43:10;12.88;;;6.22;;
68247;SDS011;55064;49.636;12.164;2023-05-10T08:45:38;11.05;;;5.97;;
68247;SDS011;55064;49.636;12.164;2023-05-10T08:48:06;11.20;;;6.37;;
68247;SDS011;55064;49.636;12.164;2023-05-10T08:50:33;12.32;;;6.78;;
68247;SDS011;55064;49.636;12.164;2023-05-10T08:53:05;10.73;;;5.95;;
68247;SDS011;55064;49.636;12.164;2023-05-10T08:55:34;12.05;;;6.13;;
68247;SDS011;55064;49.636;12.164;2023-05-10T08:58:01;11.55;;;6.53;;
68247;SDS011;55064;49.636;12.164;2023-05-10T09:00:27;11.63;;;6.57;;
68247;SDS011;55064;49.636;12.164;2023-05-10T09:02:53;10.50;;;6.03;;
68247;SDS011;55064;49.636;12.164;2023-05-10T09:05:19;10.97;;;6.63;;
68247;SDS011;55064;49.636;12.164;2023-05-10T09:07:44;10.27;;;6.13;;
68247;SDS011;55064;49.636;12.164;2023-05-10T09:10:10;9.98;;;4.82;;
68247;SDS011;55064;49.636;12.164;2023-05-10T09:12:36;10.30;;;6.03;;
68247;SDS011;55064;49.636;12.164;2023-05-10T09:15:02;10.57;;;5.90;;
68247;SDS011;55064;49.636;12.164;2023-05-10T09:17:29;10.50;;;5.72;;
68247;SDS011;55064;49.636;12.164;2023-05-10T09:20:01;9.90;;;6.00;;
68247;SDS011;55064;49.636;12.164;2023-05-10T09:22:28;9.85;;;5.82;;
68247;SDS011;55064;49.636;12.164;2023-05-10T09:25:08;9.00;;;5.00;;
68247;SDS011;55064;49.636;12.164;2023-05-10T09:27:36;10.15;;;5.55;;
68247;SDS011;55064;49.636;12.164;2023-05-10T09:30:03;11.40;;;5.97;;
68247;SDS011;55064;49.636;12.164;2023-05-10T09:35:05;9.70;;;5.38;;
68247;SDS011;55064;49.636;12.164;2023-05-10T09:37:32;11.90;;;5.57;;
68247;SDS011;55064;49.636;12.164;2023-05-10T09:39:57;11.63;;;6.10;;
68247;SDS011;55064;49.636;12.164;2023-05-10T09:42:25;10.93;;;5.90;;
68247;SDS011;55064;49.636;12.164;2023-05-10T09:44:51;11.43;;;5.70;;
68247;SDS011;55064;49.636;12.164;2023-05-10T09:47:19;10.37;;;5.30;;
68247;SDS011;55064;49.636;12.164;2023-05-10T09:49:49;12.77;;;5.78;;
68247;SDS011;55064;49.636;12.164;2023-05-10T09:52:16;11.07;;;6.33;;
68247;SDS011;55064;49.636;12.164;2023-05-10T09:54:44;10.85;;;6.60;;
68247;SDS011;55064;49.636;12.164;2023-05-10T09:57:20;9.97;;;5.53;;
68247;SDS011;55064;49.636;12.164;2023-05-10T09:59:47;8.65;;;4.60;;
68247;SDS011;55064;49.636;12.164;2023-05-10T10:02:12;9.33;;;4.70;;
68247;SDS011;55064;49.636;12.164;2023-05-10T10:04:41;11.03;;;6.10;;
68247;SDS011;55064;49.636;12.164;2023-05-10T10:07:07;10.82;;;6.20;;
68247;SDS011;55064;49.636;12.164;2023-05-10T10:09:35;11.02;;;5.93;;
68247;SDS011;55064;49.636;12.164;2023-05-10T10:12:01;9.97;;;5.60;;
68247;SDS011;55064;49.636;12.164;2023-05-10T10:14:27;11.18;;;6.53;;
68247;SDS011;55064;49.636;12.164;2023-05-10T10:16:53;10.63;;;6.10;;
68247;SDS011;55064;49.636;12.164;2023-05-10T10:19:21;12.68;;;6.70;;
68247;SDS011;55064;49.636;12.164;2023-05-10T10:21:49;11.40;;;6.90;;
68247;SDS011;55064;49.636;12.164;2023-05-10T10:24:16;11.30;;;6.37;;
68247;SDS011;55064;49.636;12.164;2023-05-10T10:26:42;10.52;;;6.30;;
68247;SDS011;55064;49.636;12.164;2023-05-10T10:34:28;9.50;;;5.73;;
68247;SDS011;55064;49.636;12.164;2023-05-10T10:36:54;9.75;;;5.05;;
68247;SDS011;55064;49.636;12.164;2023-05-10T10:39:23;7.68;;;4.18;;
68247;SDS011;55064;49.636;12.164;2023-05-10T10:41:53;8.63;;;4.15;;
68247;SDS011;55064;49.636;12.164;2023-05-10T10:49:48;7.38;;;4.00;;
68247;SDS011;55064;49.636;12.164;2023-05-10T10:52:41;6.78;;;3.60;;
68247;SDS011;55064;49.636;12.164;2023-05-10T11:08:11;6.10;;;3.00;;
68247;SDS011;55064;49.636;12.164;2023-05-10T11:10:37;6.93;;;3.33;;
68247;SDS011;55064;49.636;12.164;2023-05-10T11:13:07;6.32;;;3.30;;
68247;SDS011;55064;49.636;12.164;2023-05-10T11:15:40;7.68;;;3.55;;
68247;SDS011;55064;49.636;12.164;2023-05-10T11:18:20;8.23;;;4.30;;
68247;SDS011;55064;49.636;12.164;2023-05-10T11:20:51;8.85;;;3.47;;
68247;SDS011;55064;49.636;12.164;2023-05-10T11:23:18;7.28;;;3.88;;
68247;SDS011;55064;49.636;12.164;2023-05-10T11:25:44;7.75;;;3.30;;
68247;SDS011;55064;49.636;12.164;2023-05-10T11:28:11;6.57;;;3.50;;
68247;SDS011;55064;49.636;12.164;2023-05-10T11:30:38;6.60;;;3.80;;
68247;SDS011;55064;49.636;12.164;2023-05-10T11:33:06;7.10;;;3.83;;
68247;SDS011;55064;49.636;12.164;2023-05-10T11:35:39;7.10;;;3.83;;
68247;SDS011;55064;49.636;12.164;2023-05-10T11:38:06;8.07;;;3.63;;
68247;SDS011;55064;49.636;12.164;2023-05-10T11:40:32;8.45;;;3.80;;
68247;SDS011;55064;49.636;12.164;2023-05-10T11:43:00;6.93;;;3.80;;
68247;SDS011;55064;49.636;12.164;2023-05-10T11:45:26;6.88;;;3.67;;
68247;SDS011;55064;49.636;12.164;2023-05-10T11:47:54;6.80;;;3.83;;
68247;SDS011;55064;49.636;12.164;2023-05-10T11:50:19;7.25;;;3.30;;
68247;SDS011;55064;49.636;12.164;2023-05-10T11:52:50;8.13;;;4.20;;
68247;SDS011;55064;49.636;12.164;2023-05-10T11:55:20;6.72;;;3.40;;
68247;SDS011;55064;49.636;12.164;2023-05-10T11:57:46;7.20;;;3.50;;
68247;SDS011;55064;49.636;12.164;2023-05-10T12:00:12;7.23;;;3.47;;
68247;SDS011;55064;49.636;12.164;2023-05-10T12:02:38;8.77;;;3.33;;
68247;SDS011;55064;49.636;12.164;2023-05-10T12:05:06;7.40;;;3.23;;
68247;SDS011;55064;49.636;12.164;2023-05-10T12:10:34;6.03;;;3.25;;
68247;SDS011;55064;49.636;12.164;2023-05-10T12:13:02;6.90;;;3.30;;
68247;SDS011;55064;49.636;12.164;2023-05-10T12:15:29;6.20;;;3.23;;
68247;SDS011;55064;49.636;12.164;2023-05-10T12:17:54;6.90;;;3.55;;
68247;SDS011;55064;49.636;12.164;2023-05-10T12:20:23;7.78;;;3.45;;
68247;SDS011;55064;49.636;12.164;2023-05-10T12:22:53;5.93;;;3.10;;
68247;SDS011;55064;49.636;12.164;2023-05-10T12:25:29;7.32;;;3.60;;
68247;SDS011;55064;49.636;12.164;2023-05-10T12:27:57;6.60;;;3.40;;
68247;SDS011;55064;49.636;12.164;2023-05-10T12:30:32;6.65;;;3.17;;
68247;SDS011;55064;49.636;12.164;2023-05-10T12:33:14;7.40;;;2.70;;
68247;SDS011;55064;49.636;12.164;2023-05-10T12:35:52;8.07;;;2.33;;
68247;SDS011;55064;49.636;12.164;2023-05-10T12:46:09;4.85;;;2.15;;
68247;SDS011;55064;49.636;12.164;2023-05-10T12:48:36;7.25;;;2.30;;
68247;SDS011;55064;49.636;12.164;2023-05-10T12:51:02;6.03;;;2.90;;
68247;SDS011;55064;49.636;12.164;2023-05-10T12:53:29;5.83;;;2.57;;
68247;SDS011;55064;49.636;12.164;2023-05-10T12:55:55;5.68;;;3.25;;
68247;SDS011;55064;49.636;12.164;2023-05-10T12:58:24;5.20;;;2.30;;
68247;SDS011;55064;49.636;12.164;2023-05-10T13:00:55;5.40;;;1.83;;
68247;SDS011;55064;49.636;12.164;2023-05-10T13:03:25;4.88;;;1.90;;
68247;SDS011;55064;49.636;12.164;2023-05-10T13:05:51;4.60;;;2.00;;
68247;SDS011;55064;49.636;12.164;2023-05-10T13:08:16;4.13;;;1.60;;
68247;SDS011;55064;49.636;12.164;2023-05-10T13:10:42;5.87;;;1.67;;
68247;SDS011;55064;49.636;12.164;2023-05-10T13:13:10;4.50;;;2.00;;
68247;SDS011;55064;49.636;12.164;2023-05-10T13:15:38;4.70;;;2.10;;
68247;SDS011;55064;49.636;12.164;2023-05-10T13:18:06;3.90;;;1.50;;
68247;SDS011;55064;49.636;12.164;2023-05-10T13:20:33;5.43;;;2.10;;
68247;SDS011;55064;49.636;12.164;2023-05-10T13:23:01;4.78;;;2.08;;
68247;SDS011;55064;49.636;12.164;2023-05-10T13:25:30;4.63;;;1.90;;
68247;SDS011;55064;49.636;12.164;2023-05-10T13:27:56;4.45;;;1.88;;
68247;SDS011;55064;49.636;12.164;2023-05-10T13:30:21;5.33;;;1.73;;
68247;SDS011;55064;49.636;12.164;2023-05-10T13:32:49;4.63;;;2.05;;
68247;SDS011;55064;49.636;12.164;2023-05-10T13:35:15;5.50;;;2.33;;
68247;SDS011;55064;49.636;12.164;2023-05-10T13:37:42;5.70;;;1.90;;
68247;SDS011;55064;49.636;12.164;2023-05-10T13:40:10;5.03;;;2.22;;
68247;SDS011;55064;49.636;12.164;2023-05-10T13:42:35;6.47;;;2.37;;
68247;SDS011;55064;49.636;12.164;2023-05-10T13:45:01;4.60;;;2.00;;
68247;SDS011;55064;49.636;12.164;2023-05-10T13:47:27;5.55;;;2.20;;
68247;SDS011;55064;49.636;12.164;2023-05-10T13:49:53;4.50;;;1.90;;
68247;SDS011;55064;49.636;12.164;2023-05-10T13:52:18;5.93;;;2.20;;
68247;SDS011;55064;49.636;12.164;2023-05-10T13:54:44;5.10;;;2.30;;
68247;SDS011;55064;49.636;12.164;2023-05-10T13:57:09;5.10;;;2.00;;
68247;SDS011;55064;49.636;12.164;2023-05-10T13:59:36;5.45;;;2.05;;
68247;SDS011;55064;49.636;12.164;2023-05-10T14:02:05;4.40;;;1.93;;
68247;SDS011;55064;49.636;12.164;2023-05-10T14:04:33;4.75;;;1.75;;
68247;SDS011;55064;49.636;12.164;2023-05-10T14:07:00;4.68;;;2.10;;
68247;SDS011;55064;49.636;12.164;2023-05-10T14:09:30;6.17;;;2.57;;
68247;SDS011;55064;49.636;12.164;2023-05-10T14:11:55;5.63;;;2.20;;
68247;SDS011;55064;49.636;12.164;2023-05-10T14:14:21;4.83;;;2.03;;
68247;SDS011;55064;49.636;12.164;2023-05-10T14:16:46;5.20;;;2.10;;
68247;SDS011;55064;49.636;12.164;2023-05-10T14:19:14;4.93;;;1.97;;
68247;SDS011;55064;49.636;12.164;2023-05-10T14:21:42;6.53;;;2.30;;
68247;SDS011;55064;49.636;12.164;2023-05-10T14:24:08;5.37;;;2.10;;
68247;SDS011;55064;49.636;12.164;2023-05-10T14:26:34;5.90;;;2.40;;
68247;SDS011;55064;49.636;12.164;2023-05-10T14:29:00;4.95;;;2.17;;
68247;SDS011;55064;49.636;12.164;2023-05-10T14:31:25;4.70;;;2.00;;
68247;SDS011;55064;49.636;12.164;2023-05-10T14:33:51;10.10;;;2.97;;
68247;SDS011;55064;49.636;12.164;2023-05-10T14:36:17;5.00;;;2.35;;
68247;SDS011;55064;49.636;12.164;2023-05-10T14:38:42;5.20;;;2.47;;
68247;SDS011;55064;49.636;12.164;2023-05-10T14:41:08;5.55;;;2.40;;
68247;SDS011;55064;49.636;12.164;2023-05-10T14:43:33;5.77;;;2.30;;
68247;SDS011;55064;49.636;12.164;2023-05-10T14:46:03;5.57;;;2.83;;
68247;SDS011;55064;49.636;12.164;2023-05-10T14:48:29;7.47;;;3.65;;
68247;SDS011;55064;49.636;12.164;2023-05-10T14:50:55;6.33;;;3.00;;
68247;SDS011;55064;49.636;12.164;2023-05-10T14:53:22;5.60;;;2.50;;
68247;SDS011;55064;49.636;12.164;2023-05-10T14:55:48;6.35;;;3.00;;
68247;SDS011;55064;49.636;12.164;2023-05-10T14:58:18;7.18;;;2.80;;
68247;SDS011;55064;49.636;12.164;2023-05-10T15:00:44;5.53;;;2.70;;
68247;SDS011;55064;49.636;12.164;2023-05-10T15:03:12;6.75;;;2.90;;
68247;SDS011;55064;49.636;12.164;2023-05-10T15:05:39;6.18;;;2.83;;
68247;SDS011;55064;49.636;12.164;2023-05-10T15:08:08;7.78;;;3.47;;
68247;SDS011;55064;49.636;12.164;2023-05-10T15:10:34;6.50;;;3.70;;
68247;SDS011;55064;49.636;12.164;2023-05-10T15:15:35;7.05;;;3.70;;
68247;SDS011;55064;49.636;12.164;2023-05-10T15:23:24;8.63;;;4.28;;
68247;SDS011;55064;49.636;12.164;2023-05-10T16:02:23;6.20;;;3.10;;
68247;SDS011;55064;49.636;12.164;2023-05-10T16:04:48;6.82;;;2.60;;
68247;SDS011;55064;49.636;12.164;2023-05-10T16:09:49;5.85;;;2.10;;
68247;SDS011;55064;49.636;12.164;2023-05-10T16:12:14;5.90;;;2.67;;
68247;SDS011;55064;49.636;12.164;2023-05-10T16:14:40;6.03;;;2.60;;
68247;SDS011;55064;49.636;12.164;2023-05-10T16:17:05;6.90;;;2.88;;
68247;SDS011;55064;49.636;12.164;2023-05-10T16:21:58;5.15;;;2.30;;
68247;SDS011;55064;49.636;12.164;2023-05-10T16:24:26;5.45;;;2.00;;
68247;SDS011;55064;49.636;12.164;2023-05-10T16:26:59;5.73;;;2.23;;
68247;SDS011;55064;49.636;12.164;2023-05-10T18:03:01;8.43;;;4.72;;
68247;SDS011;55064;49.636;12.164;2023-05-10T18:08:47;8.90;;;4.63;;
68247;SDS011;55064;49.636;12.164;2023-05-10T19:44:01;6.32;;;2.60;;
68247;SDS011;55064;49.636;12.164;2023-05-10T19:48:57;6.05;;;2.58;;
68247;SDS011;55064;49.636;12.164;2023-05-10T19:51:24;8.13;;;3.15;;
68247;SDS011;55064;49.636;12.164;2023-05-10T19:53:49;7.70;;;2.83;;
68247;SDS011;55064;49.636;12.164;2023-05-10T19:56:21;7.37;;;3.50;;
68247;SDS011;55064;49.636;12.164;2023-05-10T19:58:46;8.93;;;3.85;;
68247;SDS011;55064;49.636;12.164;2023-05-10T20:01:11;6.57;;;2.80;;
68247;SDS011;55064;49.636;12.164;2023-05-10T20:03:37;6.03;;;2.40;;
68247;SDS011;55064;49.636;12.164;2023-05-10T20:06:02;5.53;;;2.77;;
68247;SDS011;55064;49.636;12.164;2023-05-10T20:08:28;8.23;;;3.87;;
68247;SDS011;55064;49.636;12.164;2023-05-10T20:10:53;8.33;;;3.20;;
68247;SDS011;55064;49.636;12.164;2023-05-10T20:13:22;6.30;;;2.72;;
68247;SDS011;55064;49.636;12.164;2023-05-10T20:15:48;6.57;;;3.10;;
68247;SDS011;55064;49.636;12.164;2023-05-10T20:18:13;5.77;;;2.47;;
68247;SDS011;55064;49.636;12.164;2023-05-10T20:20:39;6.07;;;2.30;;
68247;SDS011;55064;49.636;12.164;2023-05-10T20:23:04;6.97;;;2.37;;
68247;SDS011;55064;49.636;12.164;2023-05-10T20:25:30;7.45;;;2.47;;
68247;SDS011;55064;49.636;12.164;2023-05-10T20:27:56;5.43;;;2.17;;
68247;SDS011;55064;49.636;12.164;2023-05-10T20:30:23;5.75;;;2.20;;
68247;SDS011;55064;49.636;12.164;2023-05-10T20:32:48;5.90;;;2.42;;
68247;SDS011;55064;49.636;12.164;2023-05-10T20:35:13;5.63;;;2.37;;
68247;SDS011;55064;49.636;12.164;2023-05-10T20:37:41;6.83;;;2.60;;
68247;SDS011;55064;49.636;12.164;2023-05-10T20:40:06;7.75;;;3.15;;
68247;SDS011;55064;49.636;12.164;2023-05-10T20:42:32;10.05;;;3.30;;
68247;SDS011;55064;49.636;12.164;2023-05-10T20:44:57;6.33;;;2.93;;
68247;SDS011;55064;49.636;12.164;2023-05-10T20:47:24;9.17;;;4.03;;
68247;SDS011;55064;49.636;12.164;2023-05-10T20:49:52;6.43;;;2.78;;
68247;SDS011;55064;49.636;12.164;2023-05-10T20:52:17;6.30;;;2.73;;
68247;SDS011;55064;49.636;12.164;2023-05-10T20:54:44;7.07;;;2.70;;
68247;SDS011;55064;49.636;12.164;2023-05-10T20:57:12;5.93;;;2.88;;
68247;SDS011;55064;49.636;12.164;2023-05-10T20:59:38;6.28;;;2.88;;
68247;SDS011;55064;49.636;12.164;2023-05-10T21:02:04;7.33;;;2.50;;
68247;SDS011;55064;49.636;12.164;2023-05-10T21:04:29;7.60;;;2.83;;
68247;SDS011;55064;49.636;12.164;2023-05-10T21:06:59;6.38;;;2.80;;
68247;SDS011;55064;49.636;12.164;2023-05-10T21:09:24;6.72;;;3.15;;
68247;SDS011;55064;49.636;12.164;2023-05-10T21:11:50;6.53;;;3.03;;
68247;SDS011;55064;49.636;12.164;2023-05-10T21:14:18;6.70;;;3.00;;
68247;SDS011;55064;49.636;12.164;2023-05-10T21:16:46;6.28;;;2.95;;
68247;SDS011;55064;49.636;12.164;2023-05-10T21:19:12;6.63;;;2.90;;
68247;SDS011;55064;49.636;12.164;2023-05-10T21:21:37;7.20;;;3.10;;
68247;SDS011;55064;49.636;12.164;2023-05-10T21:24:02;6.47;;;2.67;;
68247;SDS011;55064;49.636;12.164;2023-05-10T21:26:28;6.07;;;2.60;;
68247;SDS011;55064;49.636;12.164;2023-05-10T21:28:54;5.80;;;2.50;;
68247;SDS011;55064;49.636;12.164;2023-05-10T21:31:19;5.57;;;2.37;;
68247;SDS011;55064;49.636;12.164;2023-05-10T21:33:45;4.90;;;2.08;;
68247;SDS011;55064;49.636;12.164;2023-05-10T21:36:10;6.13;;;2.10;;
68247;SDS011;55064;49.636;12.164;2023-05-10T21:38:35;5.30;;;2.40;;
68247;SDS011;55064;49.636;12.164;2023-05-10T21:41:04;5.97;;;2.50;;
68247;SDS011;55064;49.636;12.164;2023-05-10T21:46:13;5.85;;;2.30;;
68247;SDS011;55064;49.636;12.164;2023-05-10T21:48:40;5.37;;;2.40;;
68247;SDS011;55064;49.636;12.164;2023-05-10T21:51:05;7.00;;;2.90;;
68247;SDS011;55064;49.636;12.164;2023-05-10T21:53:32;6.97;;;2.60;;
68247;SDS011;55064;49.636;12.164;2023-05-10T21:58:42;6.72;;;2.55;;
68247;SDS011;55064;49.636;12.164;2023-05-10T22:01:18;6.83;;;2.80;;
68247;SDS011;55064;49.636;12.164;2023-05-10T22:09:38;6.43;;;2.70;;
68247;SDS011;55064;49.636;12.164;2023-05-10T22:14:51;7.38;;;2.90;;
68247;SDS011;55064;49.636;12.164;2023-05-10T22:17:17;8.60;;;2.80;;
68247;SDS011;55064;49.636;12.164;2023-05-10T22:23:22;7.53;;;2.83;;
68247;SDS011;55064;49.636;12.164;2023-05-10T22:25:47;5.97;;;2.97;;
68247;SDS011;55064;49.636;12.164;2023-05-10T22:28:15;6.32;;;2.70;;
68247;SDS011;55064;49.636;12.164;2023-05-10T22:30:43;6.80;;;2.53;;
68247;SDS011;55064;49.636;12.164;2023-05-10T22:33:11;6.40;;;2.90;;
68247;SDS011;55064;49.636;12.164;2023-05-10T22:35:36;7.63;;;2.75;;
68247;SDS011;55064;49.636;12.164;2023-05-10T22:38:01;7.20;;;3.03;;
68247;SDS011;55064;49.636;12.164;2023-05-10T22:40:27;8.47;;;3.10;;
68247;SDS011;55064;49.636;12.164;2023-05-10T22:42:52;6.97;;;2.72;;
68247;SDS011;55064;49.636;12.164;2023-05-10T22:45:17;7.70;;;3.10;;
68247;SDS011;55064;49.636;12.164;2023-05-10T22:47:45;6.53;;;3.13;;
68247;SDS011;55064;49.636;12.164;2023-05-10T22:50:11;7.10;;;3.20;;
68247;SDS011;55064;49.636;12.164;2023-05-10T22:52:39;7.60;;;3.33;;
68247;SDS011;55064;49.636;12.164;2023-05-10T22:55:05;6.90;;;2.95;;
68247;SDS011;55064;49.636;12.164;2023-05-10T22:57:33;6.38;;;3.03;;
68247;SDS011;55064;49.636;12.164;2023-05-10T22:59:58;6.77;;;2.97;;
68247;SDS011;55064;49.636;12.164;2023-05-10T23:02:24;7.53;;;3.28;;
68247;SDS011;55064;49.636;12.164;2023-05-10T23:04:49;7.20;;;3.20;;
68247;SDS011;55064;49.636;12.164;2023-05-10T23:07:14;6.77;;;3.40;;
68247;SDS011;55064;49.636;12.164;2023-05-10T23:09:40;6.50;;;2.70;;
68247;SDS011;55064;49.636;12.164;2023-05-10T23:12:05;7.07;;;3.40;;
68247;SDS011;55064;49.636;12.164;2023-05-10T23:14:30;10.77;;;3.80;;
68247;SDS011;55064;49.636;12.164;2023-05-10T23:16:56;9.37;;;3.90;;
68247;SDS011;55064;49.636;12.164;2023-05-10T23:19:21;8.17;;;3.10;;
68247;SDS011;55064;49.636;12.164;2023-05-10T23:21:46;6.87;;;3.30;;
68247;SDS011;55064;49.636;12.164;2023-05-10T23:24:12;8.07;;;3.67;;
68247;SDS011;55064;49.636;12.164;2023-05-10T23:26:38;6.73;;;3.40;;
68247;SDS011;55064;49.636;12.164;2023-05-10T23:29:03;7.37;;;3.47;;
68247;SDS011;55064;49.636;12.164;2023-05-10T23:31:28;6.53;;;3.23;;
68247;SDS011;55064;49.636;12.164;2023-05-10T23:33:54;7.40;;;3.67;;